Time;durP1;ratioP1;P1;durP2;ratioP2;P2;SDS_P1;SDS_P2;PMS_P1;PMS_P2;Temp;Humidity;BMP_temperature;BMP_pressure;BME280_temperature;BME280_humidity;BME280_pressure;Samples;Min_cycle;Max_cycle;Signal;HPM_P1;HPM_P2
2024/01/04 00:00:16;;;;;;;32.22;23.00;;;;;;;;;;10284896;27;20096;-74
2024/01/04 00:05:08;;;;;;;30.48;23.08;;;;;;;;;;10291618;27;20460;-74
2024/01/04 00:10:01;;;;;;;28.75;23.30;;;;;;;;;;10294413;27;20035;-74
2024/01/04 00:14:52;;;;;;;28.95;24.38;;;;;;;;;;10274531;27;20039;-74
2024/01/04 00:19:45;;;;;;;31.48;26.95;;;;;;;;;;10299505;27;20107;-74
2024/01/04 00:24:37;;;;;;;36.58;28.20;;;;;;;;;;10309406;27;20137;-74
2024/01/04 00:29:29;;;;;;;41.55;28.88;;;;;;;;;;10269635;27;20066;-74
2024/01/04 00:34:21;;;;;;;44.55;31.85;;;;;;;;;;10263277;27;20150;-74
2024/01/04 00:39:14;;;;;;;39.35;27.20;;;;;;;;;;10310395;27;20351;-74
2024/01/04 00:44:06;;;;;;;41.03;29.65;;;;;;;;;;10312195;27;20031;-74
2024/01/04 00:48:58;;;;;;;35.15;25.98;;;;;;;;;;10292563;27;20041;-74
2024/01/04 00:53:50;;;;;;;36.00;27.83;;;;;;;;;;10293488;27;20047;-73
2024/01/04 00:58:42;;;;;;;37.67;25.50;;;;;;;;;;10292360;27;20053;-73
2024/01/04 01:03:34;;;;;;;34.75;28.30;;;;;;;;;;10311296;27;20376;-74
2024/01/04 01:08:28;;;;;;;31.50;25.33;;;;;;;;;;10299946;27;20062;-74
2024/01/04 01:13:20;;;;;;;38.35;26.50;;;;;;;;;;10264079;27;20058;-74
2024/01/04 01:18:12;;;;;;;47.85;36.92;;;;;;;;;;10278347;27;20038;-74
2024/01/04 01:23:04;;;;;;;46.25;38.70;;;;;;;;;;10268689;27;20047;-74
2024/01/04 01:27:56;;;;;;;31.02;26.98;;;;;;;;;;10309475;27;20031;-74
2024/01/04 01:32:48;;;;;;;102.88;27.25;;;;;;;;;;10310127;27;20354;-73
2024/01/04 01:37:40;;;;;;;45.35;27.30;;;;;;;;;;10310493;27;20031;-73
2024/01/04 01:42:32;;;;;;;60.33;27.92;;;;;;;;;;10295822;27;20046;-74
2024/01/04 01:47:24;;;;;;;129.90;29.45;;;;;;;;;;10285946;27;20171;-74
2024/01/04 01:52:16;;;;;;;75.15;29.25;;;;;;;;;;10309849;27;20045;-74
2024/01/04 01:57:08;;;;;;;111.55;29.85;;;;;;;;;;10276282;27;20380;-74
2024/01/04 02:02:00;;;;;;;100.82;29.23;;;;;;;;;;10290773;27;20492;-74
2024/01/04 02:06:52;;;;;;;101.00;28.33;;;;;;;;;;10286030;27;20046;-74
2024/01/04 02:11:45;;;;;;;160.98;31.83;;;;;;;;;;10307972;27;20465;-74
2024/01/04 02:16:37;;;;;;;97.35;30.65;;;;;;;;;;10308800;27;20099;-74
2024/01/04 02:21:29;;;;;;;90.10;31.30;;;;;;;;;;10270852;27;20054;-74
2024/01/04 02:26:21;;;;;;;81.80;30.48;;;;;;;;;;10294382;27;20031;-73
2024/01/04 02:31:13;;;;;;;61.97;31.83;;;;;;;;;;10294205;27;20047;-73
2024/01/04 02:36:05;;;;;;;69.35;30.77;;;;;;;;;;10274927;27;20114;-74
2024/01/04 02:40:57;;;;;;;31.88;27.73;;;;;;;;;;10296949;27;20059;-74
2024/01/04 02:45:49;;;;;;;40.40;32.67;;;;;;;;;;10267265;27;20043;-74
2024/01/04 02:50:41;;;;;;;45.45;34.70;;;;;;;;;;10269524;27;20034;-74
2024/01/04 02:55:33;;;;;;;48.72;36.95;;;;;;;;;;10274280;27;20126;-74
2024/01/04 03:00:27;;;;;;;50.70;40.40;;;;;;;;;;10298954;27;20365;-74
2024/01/04 03:05:18;;;;;;;41.60;34.25;;;;;;;;;;10301574;27;20042;-74
2024/01/04 03:10:11;;;;;;;47.75;35.08;;;;;;;;;;10306587;27;20514;-74
2024/01/04 03:15:04;;;;;;;45.90;32.28;;;;;;;;;;10306753;27;20068;-74
2024/01/04 03:19:56;;;;;;;45.90;33.85;;;;;;;;;;10278161;27;20454;-74
2024/01/04 03:24:48;;;;;;;41.17;33.00;;;;;;;;;;10287352;27;20053;-74
2024/01/04 03:29:39;;;;;;;43.63;30.65;;;;;;;;;;10292119;27;20046;-73
2024/01/04 03:34:33;;;;;;;41.03;30.83;;;;;;;;;;10306976;27;20035;-74
2024/01/04 03:39:25;;;;;;;42.42;28.30;;;;;;;;;;10300125;27;20466;-74
2024/01/04 03:44:17;;;;;;;410.98;127.20;;;;;;;;;;10268004;27;20044;-74
2024/01/04 03:49:09;;;;;;;37.20;28.63;;;;;;;;;;10267621;27;20043;-74
2024/01/04 03:54:01;;;;;;;35.88;29.63;;;;;;;;;;10270948;27;20050;-74
2024/01/04 03:58:53;;;;;;;37.13;29.20;;;;;;;;;;10273568;27;20112;-74
2024/01/04 04:03:45;;;;;;;39.67;26.92;;;;;;;;;;10274138;27;20144;-73
2024/01/04 04:08:37;;;;;;;29.52;22.75;;;;;;;;;;10278869;27;20412;-74
2024/01/04 04:13:31;;;;;;;26.42;19.98;;;;;;;;;;10273286;27;20047;-73
2024/01/04 04:18:23;;;;;;;20.00;17.08;;;;;;;;;;10275663;27;20039;-74
2024/01/04 04:23:15;;;;;;;27.35;21.25;;;;;;;;;;10275932;27;20042;-74
2024/01/04 04:28:06;;;;;;;23.73;21.00;;;;;;;;;;10302792;27;20039;-74
2024/01/04 04:32:58;;;;;;;25.52;22.85;;;;;;;;;;10289091;27;20133;-74
2024/01/04 04:37:50;;;;;;;24.38;20.63;;;;;;;;;;10274432;27;20058;-74
2024/01/04 04:42:42;;;;;;;29.63;21.77;;;;;;;;;;10272815;27;20134;-73
2024/01/04 04:47:34;;;;;;;27.88;21.45;;;;;;;;;;10274348;27;20043;-73
2024/01/04 04:52:26;;;;;;;24.35;19.35;;;;;;;;;;10277447;27;20039;-74
2024/01/04 04:57:18;;;;;;;33.83;22.42;;;;;;;;;;10264990;27;20039;-73
2024/01/04 05:02:10;;;;;;;24.85;22.00;;;;;;;;;;10272202;27;20101;-74
2024/01/04 05:07:02;;;;;;;31.88;18.08;;;;;;;;;;10279690;27;20039;-74
2024/01/04 05:11:55;;;;;;;23.77;19.40;;;;;;;;;;10271423;27;20050;-73
2024/01/04 05:16:46;;;;;;;23.92;17.27;;;;;;;;;;10278251;27;20134;-74
2024/01/04 05:21:38;;;;;;;22.92;17.30;;;;;;;;;;10278612;27;20046;-73
2024/01/04 05:26:30;;;;;;;27.80;22.02;;;;;;;;;;10274087;27;20045;-73
2024/01/04 05:31:22;;;;;;;33.13;25.08;;;;;;;;;;10273441;27;21804;-74
2024/01/04 05:36:14;;;;;;;30.25;22.70;;;;;;;;;;10271774;27;20036;-73
2024/01/04 05:41:07;;;;;;;24.92;13.85;;;;;;;;;;10270247;27;20051;-73
2024/01/04 05:46:04;;;;;;;26.88;22.20;;;;;;;;;;10270121;27;20039;-73
2024/01/04 05:50:56;;;;;;;35.95;28.23;;;;;;;;;;10259408;27;20043;-73
2024/01/04 05:55:47;;;;;;;30.85;27.15;;;;;;;;;;10273025;27;20062;-73
2024/01/04 06:00:39;;;;;;;31.13;25.27;;;;;;;;;;10302177;27;20450;-74
2024/01/04 06:05:31;;;;;;;14.35;10.57;;;;;;;;;;10269615;27;20043;-74
2024/01/04 06:10:23;;;;;;;15.45;8.93;;;;;;;;;;10278314;27;20131;-74
2024/01/04 06:15:16;;;;;;;12.82;9.48;;;;;;;;;;10269405;27;20043;-74
2024/01/04 06:20:08;;;;;;;17.42;9.23;;;;;;;;;;10270167;27;20034;-74
2024/01/04 06:25:00;;;;;;;12.18;6.90;;;;;;;;;;10269945;27;20038;-74
2024/01/04 06:29:52;;;;;;;10.18;7.20;;;;;;;;;;10276430;27;20069;-74
2024/01/04 06:34:44;;;;;;;10.05;5.18;;;;;;;;;;10265591;27;20043;-74
2024/01/04 06:39:36;;;;;;;15.82;8.10;;;;;;;;;;10271472;27;20492;-73
2024/01/04 06:44:27;;;;;;;16.50;10.52;;;;;;;;;;10268966;27;20039;-74
2024/01/04 06:49:31;;;;;;;10.75;7.95;;;;;;;;;;10271860;27;20427;-74
2024/01/04 06:54:24;;;;;;;14.23;9.45;;;;;;;;;;10271971;27;20042;-74
2024/01/04 06:59:16;;;;;;;13.68;9.52;;;;;;;;;;10278481;27;20162;-74
2024/01/04 07:04:08;;;;;;;14.05;9.98;;;;;;;;;;10268524;27;20050;-74
2024/01/04 07:09:00;;;;;;;13.57;8.70;;;;;;;;;;10274579;27;20470;-74
2024/01/04 07:13:52;;;;;;;9.55;7.38;;;;;;;;;;10274809;27;20043;-74
2024/01/04 07:18:44;;;;;;;13.88;9.07;;;;;;;;;;10270700;27;20061;-74
2024/01/04 07:23:36;;;;;;;15.18;10.30;;;;;;;;;;10270856;27;20043;-74
2024/01/04 07:28:29;;;;;;;16.80;8.88;;;;;;;;;;10291854;27;20031;-74
2024/01/04 07:33:23;;;;;;;21.48;10.93;;;;;;;;;;10298513;27;20483;-73
2024/01/04 07:38:15;;;;;;;13.82;9.52;;;;;;;;;;10310557;27;20042;-72
2024/01/04 07:43:07;;;;;;;15.45;9.75;;;;;;;;;;10299158;27;20035;-74
2024/01/04 07:47:59;;;;;;;14.88;10.98;;;;;;;;;;10313746;27;20046;-73
2024/01/04 07:52:51;;;;;;;18.42;10.57;;;;;;;;;;10305709;27;20036;-74
2024/01/04 07:57:43;;;;;;;27.35;15.45;;;;;;;;;;10297843;27;20066;-72
2024/01/04 08:02:34;;;;;;;23.95;13.45;;;;;;;;;;10312785;27;20061;-72
2024/01/04 08:07:28;;;;;;;19.27;13.50;;;;;;;;;;10312672;27;20103;-72
2024/01/04 08:12:20;;;;;;;18.50;13.32;;;;;;;;;;10296504;27;20145;-72
2024/01/04 08:17:11;;;;;;;24.52;15.25;;;;;;;;;;10284472;27;20390;-73
2024/01/04 08:22:04;;;;;;;18.33;12.77;;;;;;;;;;10289544;27;20491;-72
2024/01/04 08:26:57;;;;;;;20.83;14.32;;;;;;;;;;10291292;27;20111;-72
2024/01/04 08:31:50;;;;;;;14.93;12.43;;;;;;;;;;10282986;27;20046;-72
2024/01/04 08:36:42;;;;;;;14.93;10.80;;;;;;;;;;10286178;27;20058;-73
2024/01/04 08:41:34;;;;;;;16.40;14.15;;;;;;;;;;10294962;27;20043;-72
2024/01/04 08:46:26;;;;;;;24.48;15.70;;;;;;;;;;10295521;27;20046;-72
2024/01/04 08:51:18;;;;;;;19.77;12.63;;;;;;;;;;10310465;27;20069;-73
2024/01/04 08:56:13;;;;;;;15.95;9.73;;;;;;;;;;10280464;27;20127;-72
2024/01/04 09:01:05;;;;;;;14.85;4.43;;;;;;;;;;10280385;27;20114;-72
2024/01/04 09:05:57;;;;;;;6.15;3.88;;;;;;;;;;10310413;27;20734;-72
2024/01/04 09:10:49;;;;;;;27.17;14.70;;;;;;;;;;10309925;27;20134;-72
2024/01/04 09:15:41;;;;;;;23.67;15.98;;;;;;;;;;10311003;27;20469;-72
2024/01/04 09:20:33;;;;;;;29.95;17.88;;;;;;;;;;10302060;27;20540;-72
2024/01/04 09:25:25;;;;;;;24.75;16.88;;;;;;;;;;10289020;27;20126;-72
2024/01/04 09:30:20;;;;;;;23.90;18.08;;;;;;;;;;10305009;27;20418;-72
2024/01/04 09:35:12;;;;;;;23.42;16.70;;;;;;;;;;10307084;27;20047;-72
2024/01/04 09:40:04;;;;;;;22.00;15.43;;;;;;;;;;10305534;27;20042;-72
2024/01/04 09:45:00;;;;;;;27.40;16.63;;;;;;;;;;10288980;27;20330;-72
2024/01/04 09:49:53;;;;;;;24.63;17.58;;;;;;;;;;10288000;27;20520;-72
2024/01/04 09:54:46;;;;;;;22.70;16.48;;;;;;;;;;10276419;27;20070;-72
2024/01/04 09:59:38;;;;;;;17.48;14.60;;;;;;;;;;10289472;27;20047;-72
2024/01/04 10:04:30;;;;;;;22.67;17.45;;;;;;;;;;10306512;27;20093;-72
2024/01/04 10:09:28;;;;;;;21.73;15.80;;;;;;;;;;10295359;27;20115;-72
2024/01/04 10:14:25;;;;;;;25.23;18.08;;;;;;;;;;10269593;27;20096;-72
2024/01/04 10:19:17;;;;;;;21.20;17.27;;;;;;;;;;10276161;27;20437;-73
2024/01/04 10:24:14;;;;;;;24.77;19.30;;;;;;;;;;10274711;27;20426;-73
2024/01/04 10:29:07;;;;;;;22.08;16.58;;;;;;;;;;10284283;27;20042;-72
2024/01/04 10:34:00;;;;;;;24.77;18.80;;;;;;;;;;10281896;27;20078;-72
2024/01/04 10:38:53;;;;;;;25.13;19.33;;;;;;;;;;10269092;27;20039;-72
2024/01/04 10:43:45;;;;;;;27.55;20.05;;;;;;;;;;10267541;27;20043;-72
2024/01/04 10:48:38;;;;;;;24.55;18.30;;;;;;;;;;10251550;27;20113;-72
2024/01/04 10:53:37;;;;;;;30.30;19.55;;;;;;;;;;10269131;27;20035;-72
2024/01/04 10:58:36;;;;;;;25.27;21.35;;;;;;;;;;10266949;27;20043;-72
2024/01/04 11:03:31;;;;;;;32.67;22.83;;;;;;;;;;10255939;27;20099;-72
2024/01/04 11:08:25;;;;;;;25.05;18.58;;;;;;;;;;10282182;27;20066;-73
2024/01/04 11:13:17;;;;;;;31.98;20.13;;;;;;;;;;10278597;27;20031;-73
2024/01/04 11:18:57;;;;;;;22.95;18.08;;;;;;;;;;10250963;27;20100;-73
2024/01/04 11:24:11;;;;;;;22.48;19.73;;;;;;;;;;10266029;27;20047;-72
2024/01/04 11:29:08;;;;;;;29.92;18.98;;;;;;;;;;10266312;27;20152;-72
2024/01/04 11:34:03;;;;;;;21.23;18.92;;;;;;;;;;10255915;27;20039;-72
2024/01/04 11:38:57;;;;;;;26.95;20.80;;;;;;;;;;10270542;27;20134;-73
2024/01/04 11:43:52;;;;;;;28.02;21.90;;;;;;;;;;10272519;27;20496;-73
2024/01/04 11:49:05;;;;;;;25.92;19.35;;;;;;;;;;10270969;27;20505;-73
2024/01/04 11:53:57;;;;;;;19.80;17.35;;;;;;;;;;10270498;27;20043;-73
2024/01/04 11:58:49;;;;;;;25.85;18.45;;;;;;;;;;10276185;27;20043;-73
2024/01/04 12:03:41;;;;;;;20.63;14.70;;;;;;;;;;10285589;27;20046;-73
2024/01/04 12:08:33;;;;;;;23.95;18.27;;;;;;;;;;10274172;27;20046;-73
2024/01/04 12:13:25;;;;;;;23.02;18.08;;;;;;;;;;10276626;27;20043;-74
2024/01/04 12:18:17;;;;;;;23.38;16.67;;;;;;;;;;10292408;27;20103;-73
2024/01/04 12:23:12;;;;;;;24.48;16.63;;;;;;;;;;10303138;27;20141;-72
2024/01/04 12:28:06;;;;;;;20.27;18.17;;;;;;;;;;10267834;27;20043;-73
2024/01/04 12:33:00;;;;;;;22.45;16.45;;;;;;;;;;10275120;27;20051;-73
2024/01/04 12:38:03;;;;;;;27.67;16.83;;;;;;;;;;10259517;27;20074;-73
2024/01/04 12:42:55;;;;;;;21.15;18.92;;;;;;;;;;10286047;27;20090;-73
2024/01/04 12:47:47;;;;;;;26.75;19.60;;;;;;;;;;10270188;27;20473;-77
2024/01/04 12:52:40;;;;;;;19.55;17.55;;;;;;;;;;10271264;27;20070;-78
2024/01/04 12:57:35;;;;;;;25.23;18.10;;;;;;;;;;10275272;27;20403;-77
2024/01/04 13:02:26;;;;;;;15.40;13.02;;;;;;;;;;10253608;27;20051;-77
2024/01/04 13:07:19;;;;;;;17.55;14.55;;;;;;;;;;10273185;27;20146;-77
2024/01/04 13:12:11;;;;;;;17.35;14.70;;;;;;;;;;10271373;27;20385;-77
2024/01/04 13:17:03;;;;;;;18.67;14.45;;;;;;;;;;10274309;27;20054;-76
2024/01/04 13:21:55;;;;;;;20.13;12.55;;;;;;;;;;10274429;27;20043;-76
2024/01/04 13:26:47;;;;;;;14.40;12.75;;;;;;;;;;10270141;27;20065;-77
2024/01/04 13:31:40;;;;;;;19.25;13.32;;;;;;;;;;10270769;27;20084;-77
2024/01/04 13:36:32;;;;;;;14.55;12.93;;;;;;;;;;10269522;27;20067;-77
2024/01/04 13:41:24;;;;;;;12.85;11.30;;;;;;;;;;10270763;27;20675;-77
2024/01/04 13:46:16;;;;;;;16.52;12.88;;;;;;;;;;10269111;27;20035;-77
2024/01/04 13:51:09;;;;;;;17.63;14.10;;;;;;;;;;10274230;27;20138;-77
2024/01/04 13:56:01;;;;;;;15.52;13.60;;;;;;;;;;10270289;27;20053;-77
2024/01/04 14:00:53;;;;;;;17.17;12.82;;;;;;;;;;10270714;27;20058;-78
2024/01/04 14:05:46;;;;;;;25.83;14.15;;;;;;;;;;10269357;27;21398;-78
2024/01/04 14:10:45;;;;;;;17.73;14.07;;;;;;;;;;10269462;27;20339;-78
2024/01/04 14:15:37;;;;;;;12.90;11.60;;;;;;;;;;10269197;27;20141;-78
2024/01/04 14:20:29;;;;;;;21.48;13.43;;;;;;;;;;10269213;27;20039;-78
2024/01/04 14:25:21;;;;;;;14.15;12.40;;;;;;;;;;10250747;27;20063;-79
2024/01/04 14:30:14;;;;;;;17.48;14.27;;;;;;;;;;10274126;27;20529;-79
2024/01/04 14:35:06;;;;;;;18.67;16.27;;;;;;;;;;10267960;27;20155;-79
2024/01/04 14:39:59;;;;;;;21.45;16.38;;;;;;;;;;10272195;27;20047;-79
2024/01/04 14:44:51;;;;;;;28.10;25.17;;;;;;;;;;10267839;27;20046;-79
2024/01/04 14:49:43;;;;;;;23.13;18.92;;;;;;;;;;10271380;27;20047;-78
2024/01/04 14:54:36;;;;;;;24.52;19.83;;;;;;;;;;10268010;27;20047;-78
2024/01/04 14:59:28;;;;;;;31.50;21.85;;;;;;;;;;10269170;27;20461;-78
2024/01/04 15:04:19;;;;;;;37.75;26.65;;;;;;;;;;10267376;27;20043;-78
2024/01/04 15:09:15;;;;;;;45.72;34.22;;;;;;;;;;10267755;27;20118;-78
2024/01/04 15:14:07;;;;;;;21.02;16.17;;;;;;;;;;10267122;27;20418;-78
2024/01/04 15:18:59;;;;;;;32.55;21.58;;;;;;;;;;10266229;27;20108;-79
2024/01/04 15:23:51;;;;;;;57.35;42.47;;;;;;;;;;10273585;27;20043;-78
2024/01/04 15:28:43;;;;;;;29.08;22.45;;;;;;;;;;10266733;27;20047;-78
2024/01/04 15:33:35;;;;;;;45.63;27.45;;;;;;;;;;10271287;27;20055;-79
2024/01/04 15:38:28;;;;;;;45.08;32.58;;;;;;;;;;10266618;27;20472;-78
2024/01/04 15:43:20;;;;;;;82.60;66.07;;;;;;;;;;10266033;27;20047;-79
2024/01/04 15:48:12;;;;;;;27.23;20.38;;;;;;;;;;10276645;27;20039;-79
2024/01/04 15:53:08;;;;;;;40.55;28.75;;;;;;;;;;10275082;27;20450;-79
2024/01/04 15:58:00;;;;;;;47.13;27.70;;;;;;;;;;10278644;27;20043;-79
2024/01/04 16:02:52;;;;;;;29.10;20.58;;;;;;;;;;10274338;27;20043;-79
2024/01/04 16:07:44;;;;;;;66.88;50.78;;;;;;;;;;10274593;27;20050;-79
2024/01/04 16:12:37;;;;;;;15.52;13.90;;;;;;;;;;10274526;27;20080;-79
2024/01/04 16:17:29;;;;;;;21.17;19.02;;;;;;;;;;10278407;27;20035;-79
2024/01/04 16:22:20;;;;;;;21.55;16.98;;;;;;;;;;10276856;27;20034;-78
2024/01/04 16:27:13;;;;;;;28.67;23.17;;;;;;;;;;10301600;27;20472;-79
2024/01/04 16:32:05;;;;;;;29.83;24.58;;;;;;;;;;10273491;27;20134;-79
2024/01/04 16:36:59;;;;;;;21.42;16.02;;;;;;;;;;10272658;27;20092;-78
2024/01/04 16:41:52;;;;;;;20.42;10.98;;;;;;;;;;10273552;27;20071;-79
2024/01/04 16:46:43;;;;;;;20.08;13.38;;;;;;;;;;10276830;27;20045;-79
2024/01/04 16:51:36;;;;;;;11.23;9.55;;;;;;;;;;10274762;27;20122;-78
2024/01/04 16:56:29;;;;;;;11.23;9.48;;;;;;;;;;10265121;27;20034;-78
2024/01/04 17:01:21;;;;;;;15.00;13.38;;;;;;;;;;10273069;27;20039;-79
2024/01/04 17:06:14;;;;;;;12.23;8.68;;;;;;;;;;10272763;27;20399;-78
2024/01/04 17:11:09;;;;;;;12.38;10.55;;;;;;;;;;10275370;27;20035;-78
2024/01/04 17:16:01;;;;;;;70.13;48.53;;;;;;;;;;10271239;27;20470;-77
2024/01/04 17:20:53;;;;;;;12.80;7.35;;;;;;;;;;10276136;27;20827;-77
2024/01/04 17:25:45;;;;;;;11.13;9.15;;;;;;;;;;10271211;27;20061;-81
2024/01/04 17:30:37;;;;;;;18.38;14.57;;;;;;;;;;10272278;27;20043;-78
2024/01/04 17:35:31;;;;;;;13.77;11.25;;;;;;;;;;10271335;27;20446;-78
2024/01/04 17:40:24;;;;;;;9.85;7.35;;;;;;;;;;10269438;27;20103;-78
2024/01/04 17:45:16;;;;;;;14.15;11.38;;;;;;;;;;10269377;27;20047;-78
2024/01/04 17:50:09;;;;;;;16.65;11.32;;;;;;;;;;10270168;27;20462;-78
2024/01/04 17:55:01;;;;;;;16.15;11.57;;;;;;;;;;10270093;27;20092;-78
2024/01/04 17:59:53;;;;;;;33.35;18.02;;;;;;;;;;10269646;27;20039;-78
2024/01/04 18:04:46;;;;;;;14.10;9.13;;;;;;;;;;10270372;27;20442;-77
2024/01/04 18:09:38;;;;;;;14.23;8.82;;;;;;;;;;10268660;27;20039;-78
2024/01/04 18:14:30;;;;;;;11.48;5.38;;;;;;;;;;10269258;27;20122;-78
2024/01/04 18:19:22;;;;;;;11.15;6.93;;;;;;;;;;10271069;27;20074;-78
2024/01/04 18:24:14;;;;;;;7.40;5.95;;;;;;;;;;10270355;27;20073;-78
2024/01/04 18:29:06;;;;;;;11.10;8.00;;;;;;;;;;10269844;27;20050;-78
2024/01/04 18:33:58;;;;;;;26.48;14.68;;;;;;;;;;10269212;27;20043;-78
2024/01/04 18:38:50;;;;;;;26.85;12.82;;;;;;;;;;10268416;27;20092;-78
2024/01/04 18:43:54;;;;;;;8.35;6.22;;;;;;;;;;10269187;27;20058;-78
2024/01/04 18:48:46;;;;;;;9.63;7.32;;;;;;;;;;10282184;27;20126;-78
2024/01/04 18:53:38;;;;;;;10.30;7.15;;;;;;;;;;10249664;27;20357;-79
2024/01/04 18:58:31;;;;;;;15.93;8.15;;;;;;;;;;10267507;27;20043;-78
2024/01/04 19:03:23;;;;;;;7.38;5.18;;;;;;;;;;10266870;27;20135;-76
2024/01/04 19:08:15;;;;;;;8.77;5.47;;;;;;;;;;10264944;27;20473;-76
2024/01/04 19:13:07;;;;;;;6.95;5.18;;;;;;;;;;10267196;27;20070;-77
2024/01/04 19:17:59;;;;;;;9.13;5.32;;;;;;;;;;10268874;27;20047;-76
2024/01/04 19:22:51;;;;;;;12.68;6.53;;;;;;;;;;10267857;27;20051;-76
2024/01/04 19:27:44;;;;;;;13.35;6.68;;;;;;;;;;10271562;27;20634;-82
2024/01/04 19:32:36;;;;;;;10.45;7.32;;;;;;;;;;10274083;27;20074;-82
2024/01/04 19:37:28;;;;;;;10.95;7.30;;;;;;;;;;10275207;27;20074;-82
2024/01/04 19:42:20;;;;;;;17.05;11.75;;;;;;;;;;10276499;27;20043;-81
2024/01/04 19:47:13;;;;;;;17.42;12.40;;;;;;;;;;10275941;27;20370;-82
2024/01/04 19:52:05;;;;;;;12.90;8.65;;;;;;;;;;10281031;27;20104;-81
2024/01/04 19:56:58;;;;;;;11.60;7.45;;;;;;;;;;10270820;27;20066;-82
2024/01/04 20:01:50;;;;;;;13.05;9.15;;;;;;;;;;10272190;27;20047;-81
2024/01/04 20:06:44;;;;;;;14.23;9.13;;;;;;;;;;10269664;27;20051;-81
2024/01/04 20:11:37;;;;;;;10.50;5.00;;;;;;;;;;10274745;27;20103;-81
2024/01/04 20:16:29;;;;;;;11.13;5.90;;;;;;;;;;10278502;27;20039;-80
2024/01/04 20:21:21;;;;;;;16.58;11.13;;;;;;;;;;10285466;27;20039;-81
2024/01/04 20:26:14;;;;;;;15.02;9.43;;;;;;;;;;10291369;27;20075;-81
2024/01/04 20:31:08;;;;;;;10.52;7.32;;;;;;;;;;10298771;27;20070;-81
2024/01/04 20:36:00;;;;;;;14.02;9.27;;;;;;;;;;10293773;27;20071;-80
2024/01/04 20:40:52;;;;;;;23.48;14.93;;;;;;;;;;10307527;27;20071;-81
2024/01/04 20:45:46;;;;;;;40.22;29.52;;;;;;;;;;10313766;27;20047;-80
2024/01/04 20:50:38;;;;;;;14.45;12.00;;;;;;;;;;10309141;27;20445;-81
2024/01/04 20:55:30;;;;;;;17.35;14.30;;;;;;;;;;10305773;27;20053;-81
2024/01/04 21:00:26;;;;;;;23.63;18.27;;;;;;;;;;10289560;27;20397;-81
2024/01/04 21:05:19;;;;;;;11.05;9.05;;;;;;;;;;10289978;27;20042;-81
2024/01/04 21:10:11;;;;;;;13.00;9.38;;;;;;;;;;10312591;27;20461;-81
2024/01/04 21:15:03;;;;;;;12.90;9.45;;;;;;;;;;10314038;27;20058;-80
2024/01/04 21:19:59;;;;;;;12.90;9.05;;;;;;;;;;10288174;27;20047;-80
2024/01/04 21:24:51;;;;;;;13.80;10.05;;;;;;;;;;10287306;27;20050;-78
2024/01/04 21:29:43;;;;;;;10.98;8.43;;;;;;;;;;10312195;27;20114;-80
2024/01/04 21:34:35;;;;;;;13.95;10.35;;;;;;;;;;10289441;27;20043;-82
2024/01/04 21:39:28;;;;;;;10.88;8.80;;;;;;;;;;10290963;27;20043;-80
2024/01/04 21:44:20;;;;;;;11.43;9.20;;;;;;;;;;10296015;27;20046;-81
2024/01/04 21:49:12;;;;;;;10.75;8.98;;;;;;;;;;10303845;27;20050;-81
2024/01/04 21:54:04;;;;;;;13.20;8.45;;;;;;;;;;10303220;27;20050;-81
2024/01/04 21:58:56;;;;;;;14.85;9.60;;;;;;;;;;10291631;27;20046;-75
2024/01/04 22:03:48;;;;;;;11.15;9.07;;;;;;;;;;10289838;27;20051;-74
2024/01/04 22:08:40;;;;;;;14.63;10.48;;;;;;;;;;10285141;27;20122;-75
2024/01/04 22:13:31;;;;;;;13.15;10.68;;;;;;;;;;10272074;27;20095;-75
2024/01/04 22:18:23;;;;;;;8.68;7.63;;;;;;;;;;10309134;27;20114;-75
2024/01/04 22:23:15;;;;;;;9.88;8.88;;;;;;;;;;10310140;27;20042;-75
2024/01/04 22:28:07;;;;;;;11.82;8.38;;;;;;;;;;10306164;27;20066;-75
2024/01/04 22:32:59;;;;;;;14.82;10.02;;;;;;;;;;10292744;27;20441;-75
2024/01/04 22:37:51;;;;;;;12.27;10.63;;;;;;;;;;10289601;27;20057;-75
2024/01/04 22:42:43;;;;;;;12.23;9.95;;;;;;;;;;10301940;27;20485;-75
2024/01/04 22:47:35;;;;;;;12.52;9.05;;;;;;;;;;10308817;27;20060;-75
2024/01/04 22:52:27;;;;;;;11.25;9.07;;;;;;;;;;10309109;27;20035;-74
2024/01/04 22:57:19;;;;;;;14.52;11.50;;;;;;;;;;10301557;27;20054;-75
2024/01/04 23:02:12;;;;;;;12.32;10.05;;;;;;;;;;10288201;27;20038;-75
2024/01/04 23:07:04;;;;;;;15.23;9.20;;;;;;;;;;10273421;27;20077;-75
2024/01/04 23:11:56;;;;;;;17.50;13.05;;;;;;;;;;10288113;27;20457;-75
2024/01/04 23:16:48;;;;;;;15.00;12.35;;;;;;;;;;10287688;27;20043;-75
2024/01/04 23:21:40;;;;;;;14.77;11.18;;;;;;;;;;10302146;27;20042;-75
2024/01/04 23:26:32;;;;;;;27.67;18.00;;;;;;;;;;10307725;27;20130;-75
2024/01/04 23:31:24;;;;;;;16.48;14.05;;;;;;;;;;10308568;27;20376;-75
2024/01/04 23:36:16;;;;;;;21.17;17.35;;;;;;;;;;10279831;27;20043;-75
2024/01/04 23:41:08;;;;;;;14.98;13.35;;;;;;;;;;10278264;27;20131;-75
2024/01/04 23:45:59;;;;;;;16.00;14.38;;;;;;;;;;10295504;27;20443;-75
2024/01/04 23:50:51;;;;;;;18.65;15.50;;;;;;;;;;10293979;27;20043;-76
2024/01/04 23:55:43;;;;;;;21.65;17.15;;;;;;;;;;10280885;27;20043;-75
